createdAt,value
2019-04-04T00:01:06.678Z,17.45
2019-04-04T00:06:03.170Z,17.65
2019-04-04T00:08:32.268Z,19.05
2019-04-04T00:11:01.372Z,21.48
2019-04-04T00:13:30.071Z,20.45
2019-04-04T00:15:58.738Z,23.42
2019-04-04T00:18:28.103Z,21.40
2019-04-04T00:20:56.786Z,20.05
2019-04-04T00:23:25.728Z,20.85
2019-04-04T00:25:54.407Z,23.55
2019-04-04T00:28:23.170Z,24.18
2019-04-04T00:30:51.842Z,23.22
2019-04-04T00:33:20.537Z,27.67
2019-04-04T00:35:49.225Z,24.20
2019-04-04T00:38:17.914Z,22.00
2019-04-04T00:40:46.601Z,23.27
2019-04-04T00:43:15.539Z,19.30
2019-04-04T00:45:44.226Z,21.48
2019-04-04T00:48:13.168Z,18.27
2019-04-04T00:50:42.368Z,17.57
2019-04-04T00:53:11.814Z,15.55
2019-04-04T00:55:41.050Z,17.65
2019-04-04T00:58:09.754Z,17.50
2019-04-04T01:00:38.584Z,20.55
2019-04-04T01:03:07.520Z,20.72
2019-04-04T01:05:36.703Z,19.67
2019-04-04T01:08:07.024Z,19.82
2019-04-04T01:10:36.063Z,24.67
2019-04-04T01:13:04.821Z,19.45
2019-04-04T01:15:33.507Z,18.90
2019-04-04T01:18:04.008Z,19.67
2019-04-04T01:20:33.098Z,19.30
2019-04-04T01:23:01.872Z,17.98
2019-04-04T01:25:32.647Z,18.65
2019-04-04T01:28:01.269Z,17.90
2019-04-04T01:30:29.957Z,20.00
2019-04-04T01:32:58.698Z,20.17
2019-04-04T01:35:27.392Z,19.12
2019-04-04T01:37:58.241Z,20.80
2019-04-04T01:40:26.890Z,20.70
2019-04-04T01:42:55.840Z,22.93
2019-04-04T01:45:24.771Z,21.48
2019-04-04T01:47:53.697Z,20.27
2019-04-04T01:50:23.285Z,113.70
2019-04-04T01:52:52.039Z,47.98
2019-04-04T01:55:20.992Z,29.25
2019-04-04T01:57:50.185Z,32.85
2019-04-04T02:00:19.380Z,45.38
2019-04-04T02:02:48.047Z,27.82
2019-04-04T02:05:16.883Z,20.88
2019-04-04T02:07:45.573Z,22.55
2019-04-04T02:10:14.516Z,29.87
2019-04-04T02:12:43.199Z,25.32
2019-04-04T02:15:14.203Z,15.85
2019-04-04T02:17:42.727Z,16.70
2019-04-04T02:20:11.773Z,16.30
2019-04-04T02:22:40.731Z,16.15
2019-04-04T02:25:09.673Z,11.43
2019-04-04T02:27:38.474Z,13.35
2019-04-04T02:30:14.834Z,16.37
2019-04-04T02:32:40.218Z,13.95
2019-04-04T02:35:10.670Z,16.87
2019-04-04T02:37:40.260Z,17.57
2019-04-04T02:40:10.062Z,18.17
2019-04-04T02:42:39.314Z,19.27
2019-04-04T02:45:08.654Z,17.62
2019-04-04T02:47:37.305Z,16.37
2019-04-04T02:50:06.622Z,18.10
2019-04-04T02:52:35.558Z,17.52
2019-04-04T02:55:04.654Z,16.10
2019-04-04T02:57:33.560Z,16.25
2019-04-04T03:00:03.033Z,16.45
2019-04-04T03:02:31.701Z,16.80
2019-04-04T03:05:00.486Z,16.87
2019-04-04T03:07:31.005Z,17.95
2019-04-04T03:09:59.903Z,19.20
2019-04-04T03:12:28.578Z,18.75
2019-04-04T03:14:57.279Z,18.52
2019-04-04T03:17:26.210Z,19.90
2019-04-04T03:19:55.159Z,20.72
2019-04-04T03:22:24.623Z,21.07
2019-04-04T03:24:54.246Z,18.80
2019-04-04T03:27:26.052Z,22.95
2019-04-04T03:29:53.653Z,22.60
2019-04-04T03:32:22.454Z,24.67
2019-04-04T03:34:51.920Z,23.85
2019-04-04T03:37:20.622Z,23.85
2019-04-04T03:39:52.186Z,23.52
2019-04-04T03:42:19.839Z,28.83
2019-04-04T03:44:52.838Z,24.20
2019-04-04T03:47:19.531Z,25.75
2019-04-04T03:49:48.228Z,28.35
2019-04-04T03:52:19.287Z,36.68
2019-04-04T03:54:47.993Z,34.85
2019-04-04T03:57:16.931Z,36.13
2019-04-04T03:59:46.382Z,34.40
2019-04-04T04:02:17.852Z,31.90
2019-04-04T04:04:45.746Z,32.58
2019-04-04T04:07:15.371Z,35.85
2019-04-04T04:09:44.470Z,34.15
2019-04-04T04:12:13.710Z,31.30
2019-04-04T04:14:42.402Z,30.68
2019-04-04T04:17:11.662Z,34.88
2019-04-04T04:19:41.235Z,58.95
2019-04-04T04:22:12.970Z,36.10
2019-04-04T04:24:41.065Z,37.13
2019-04-04T04:27:14.374Z,53.92
2019-04-04T04:29:40.164Z,494.00
2019-04-04T04:32:08.932Z,407.32
2019-04-04T04:34:37.624Z,582.33
2019-04-04T04:37:06.322Z,400.60
2019-04-04T04:39:40.866Z,523.73
2019-04-04T04:42:05.704Z,757.52
2019-04-04T04:44:37.629Z,750.25
2019-04-04T04:47:05.309Z,743.58
2019-04-04T04:49:35.732Z,416.95
2019-04-04T04:52:04.878Z,364.35
2019-04-04T04:54:33.564Z,164.30
2019-04-04T04:57:03.921Z,495.98
2019-04-04T04:59:32.706Z,578.67
2019-04-04T05:02:01.817Z,56.02
2019-04-04T05:04:30.792Z,54.15
2019-04-04T05:06:59.827Z,189.28
2019-04-04T05:09:28.765Z,95.85
2019-04-04T05:11:57.482Z,616.12
2019-04-04T05:14:29.811Z,729.95
2019-04-04T05:16:59.051Z,162.22
2019-04-04T05:19:27.844Z,223.97
2019-04-04T05:21:56.552Z,213.55
2019-04-04T05:24:25.750Z,103.70
2019-04-04T05:26:54.706Z,62.08
2019-04-04T05:29:23.361Z,113.47
2019-04-04T05:31:52.166Z,117.60
2019-04-04T05:34:21.423Z,84.75
2019-04-04T05:36:50.123Z,135.80
2019-04-04T05:39:19.097Z,346.73
2019-04-04T05:41:48.179Z,152.65
2019-04-04T05:44:16.839Z,71.90
2019-04-04T05:46:45.550Z,146.55
2019-04-04T05:49:14.262Z,147.85
2019-04-04T05:51:42.975Z,190.47
2019-04-04T05:54:11.687Z,50.80
2019-04-04T05:56:40.653Z,52.17
2019-04-04T05:59:09.344Z,94.17
2019-04-04T06:01:38.040Z,461.85
2019-04-04T06:04:06.995Z,636.02
2019-04-04T06:06:36.055Z,93.10
2019-04-04T06:09:25.738Z,91.80
2019-04-04T06:11:55.339Z,200.78
2019-04-04T06:14:24.032Z,175.07
2019-04-04T06:16:53.010Z,131.63
2019-04-04T06:19:21.785Z,157.72
2019-04-04T06:21:51.212Z,129.95
2019-04-04T06:24:20.135Z,78.65
2019-04-04T06:26:48.829Z,58.23
2019-04-04T06:29:18.039Z,50.10
2019-04-04T06:31:48.217Z,42.20
2019-04-04T06:34:16.920Z,45.15
2019-04-04T06:36:46.997Z,48.87
2019-04-04T06:39:16.331Z,44.63
2019-04-04T06:41:45.613Z,41.80
2019-04-04T06:44:14.304Z,48.48
2019-04-04T06:46:43.025Z,53.10
2019-04-04T06:49:12.571Z,44.13
2019-04-04T06:51:41.502Z,41.30
2019-04-04T06:54:10.215Z,37.42
2019-04-04T06:56:38.896Z,33.15
2019-04-04T06:59:11.221Z,37.38
2019-04-04T07:01:40.858Z,36.03
2019-04-04T07:04:09.548Z,40.33
2019-04-04T07:06:38.230Z,36.03
2019-04-04T07:09:08.070Z,37.45
2019-04-04T07:11:36.760Z,58.10
2019-04-04T07:14:05.705Z,40.23
2019-04-04T07:16:36.826Z,36.77
2019-04-04T07:19:07.717Z,154.75
2019-04-04T07:21:35.732Z,201.25
2019-04-04T07:24:04.515Z,582.90
2019-04-04T07:26:33.478Z,108.07
2019-04-04T07:29:02.249Z,405.00
2019-04-04T07:31:34.012Z,246.90
2019-04-04T07:34:02.530Z,657.10
2019-04-04T07:36:31.271Z,301.80
2019-04-04T07:39:00.312Z,79.75
2019-04-04T07:41:30.042Z,48.70
2019-04-04T07:43:59.001Z,47.50
2019-04-04T07:46:27.727Z,129.68
2019-04-04T07:48:56.431Z,53.45
2019-04-04T07:51:25.115Z,44.35
2019-04-04T07:53:53.816Z,43.98
2019-04-04T07:56:22.547Z,42.23
2019-04-04T07:58:51.298Z,44.23
2019-04-04T08:01:19.987Z,43.50
2019-04-04T08:03:48.701Z,40.10
2019-04-04T08:06:17.376Z,43.25
2019-04-04T08:08:46.080Z,42.05
2019-04-04T08:11:14.795Z,42.75
2019-04-04T08:13:43.990Z,39.38
2019-04-04T08:16:12.942Z,37.85
2019-04-04T08:18:41.879Z,31.82
2019-04-04T08:21:10.906Z,32.17
2019-04-04T08:23:39.702Z,36.33
2019-04-04T08:26:10.098Z,36.98
2019-04-04T08:28:39.392Z,32.30
2019-04-04T08:31:09.774Z,32.17
2019-04-04T08:33:38.690Z,31.07
2019-04-04T08:36:07.470Z,26.90
2019-04-04T08:38:36.254Z,29.12
2019-04-04T08:41:05.081Z,29.65
2019-04-04T08:43:33.774Z,29.35
2019-04-04T08:46:02.793Z,25.70
2019-04-04T08:48:31.561Z,26.23
2019-04-04T08:51:00.332Z,24.50
2019-04-04T08:53:39.252Z,24.85
2019-04-04T08:55:59.722Z,26.07
2019-04-04T08:58:28.497Z,25.02
2019-04-04T09:00:57.192Z,25.45
2019-04-04T09:03:25.976Z,28.65
2019-04-04T09:05:54.763Z,31.52
2019-04-04T09:08:23.891Z,29.85
2019-04-04T09:10:52.837Z,29.72
2019-04-04T09:13:21.865Z,27.17
2019-04-04T09:15:50.826Z,25.12
2019-04-04T09:18:19.775Z,21.10
2019-04-04T09:20:48.733Z,26.17
2019-04-04T09:23:17.510Z,31.62
2019-04-04T09:25:46.341Z,27.22
2019-04-04T09:38:40.126Z,24.05
2019-04-04T09:41:08.849Z,23.02
2019-04-04T09:43:39.115Z,23.55
2019-04-04T09:46:08.227Z,24.20
2019-04-04T09:48:36.952Z,26.05
2019-04-04T09:51:05.730Z,28.00
2019-04-04T09:53:34.749Z,37.15
2019-04-04T09:56:03.761Z,36.98
2019-04-04T09:58:32.517Z,34.10
2019-04-04T10:01:01.367Z,33.35
2019-04-04T10:03:30.084Z,30.20
2019-04-04T10:05:59.147Z,35.52
2019-04-04T10:08:27.859Z,37.42
2019-04-04T10:10:56.867Z,32.15
2019-04-04T10:13:25.541Z,36.03
2019-04-04T10:15:54.956Z,28.00
2019-04-04T10:18:23.639Z,27.07
2019-04-04T10:20:52.349Z,26.15
2019-04-04T10:23:21.589Z,27.07
2019-04-04T10:25:50.575Z,24.65
2019-04-04T10:28:19.760Z,26.50
2019-04-04T10:30:48.538Z,29.30
2019-04-04T10:33:17.225Z,29.48
2019-04-04T10:35:46.226Z,31.17
2019-04-04T10:38:14.945Z,36.50
2019-04-04T10:40:43.903Z,31.75
2019-04-04T10:43:12.622Z,25.23
2019-04-04T10:45:41.336Z,21.57
2019-04-04T10:48:10.031Z,24.60
2019-04-04T10:50:38.749Z,24.25
2019-04-04T10:53:07.432Z,24.40
2019-04-04T10:55:36.467Z,26.35
2019-04-04T10:58:05.370Z,25.70
2019-04-04T11:00:34.393Z,28.50
2019-04-04T11:03:03.341Z,29.30
2019-04-04T11:05:35.212Z,28.07
2019-04-04T11:08:02.776Z,32.90
2019-04-04T11:10:31.456Z,33.98
2019-04-04T11:13:02.723Z,35.45
2019-04-04T11:15:30.590Z,37.73
2019-04-04T11:17:59.834Z,31.55
2019-04-04T11:20:28.545Z,35.08
2019-04-04T11:22:57.288Z,34.33
2019-04-04T11:25:26.260Z,36.38
2019-04-04T11:27:54.956Z,36.35
2019-04-04T11:30:23.818Z,38.33
2019-04-04T11:32:52.756Z,35.55
2019-04-04T11:35:23.163Z,42.90
2019-04-04T11:37:52.083Z,37.23
2019-04-04T11:40:20.789Z,36.53
2019-04-04T11:42:49.764Z,38.35
2019-04-04T11:45:18.852Z,38.15
2019-04-04T11:47:47.562Z,41.40
2019-04-04T11:50:16.346Z,41.00
2019-04-04T11:52:45.043Z,40.40
2019-04-04T11:55:13.745Z,36.55
2019-04-04T11:57:42.458Z,35.30
2019-04-04T12:00:13.528Z,41.25
2019-04-04T12:02:42.306Z,38.70
2019-04-04T12:05:11.238Z,40.98
2019-04-04T12:07:40.447Z,42.93
2019-04-04T12:10:10.658Z,35.88
2019-04-04T12:12:39.374Z,36.65
2019-04-04T12:15:10.712Z,37.67
2019-04-04T12:17:39.446Z,37.55
2019-04-04T12:20:08.887Z,38.63
2019-04-04T12:22:37.879Z,37.80
2019-04-04T12:25:06.945Z,39.83
2019-04-04T12:27:36.144Z,43.92
2019-04-04T12:30:06.506Z,43.55
2019-04-04T12:32:35.233Z,44.30
2019-04-04T12:35:04.798Z,39.85
2019-04-04T12:37:33.548Z,38.45
2019-04-04T12:40:02.526Z,39.20
2019-04-04T12:42:31.488Z,45.25
2019-04-04T12:45:00.198Z,40.50
2019-04-04T12:47:29.157Z,39.75
2019-04-04T12:49:58.129Z,44.63
2019-04-04T12:52:27.096Z,44.25
2019-04-04T12:54:55.819Z,44.50
2019-04-04T12:57:24.561Z,43.00
2019-04-04T12:59:53.815Z,44.73
2019-04-04T13:02:22.495Z,43.48
2019-04-04T13:04:51.939Z,43.95
2019-04-04T13:07:20.674Z,51.60
2019-04-04T13:09:49.378Z,45.23
2019-04-04T13:12:18.348Z,45.63
2019-04-04T13:14:47.173Z,47.30
2019-04-04T13:17:15.891Z,49.18
2019-04-04T13:19:44.595Z,50.05
2019-04-04T13:22:13.393Z,44.10
2019-04-04T13:24:42.171Z,47.58
2019-04-04T13:27:10.971Z,48.42
2019-04-04T13:29:39.652Z,47.93
2019-04-04T13:32:08.632Z,53.13
2019-04-04T13:34:39.825Z,51.60
2019-04-04T13:37:08.796Z,57.37
2019-04-04T13:39:37.485Z,52.88
2019-04-04T13:42:06.366Z,53.92
2019-04-04T13:44:35.327Z,54.42
2019-04-04T13:47:04.113Z,53.78
2019-04-04T13:49:32.817Z,58.68
2019-04-04T13:52:01.506Z,60.78
2019-04-04T13:54:30.211Z,55.05
2019-04-04T13:56:58.950Z,60.52
2019-04-04T13:59:27.934Z,56.68
2019-04-04T14:01:57.165Z,61.42
2019-04-04T14:04:25.872Z,57.23
2019-04-04T14:06:54.850Z,55.73
2019-04-04T14:09:23.568Z,56.15
2019-04-04T14:11:52.268Z,62.35
2019-04-04T14:14:21.319Z,61.63
2019-04-04T14:16:50.049Z,63.00
2019-04-04T14:19:19.009Z,67.27
2019-04-04T14:21:50.742Z,61.68
2019-04-04T14:24:19.685Z,55.83
2019-04-04T14:26:48.638Z,70.97
2019-04-04T14:29:27.138Z,77.75
2019-04-04T14:31:47.824Z,70.60
2019-04-04T14:34:16.573Z,63.98
2019-04-04T14:36:45.266Z,65.47
2019-04-04T14:39:13.961Z,67.82
2019-04-04T14:41:42.682Z,71.82
2019-04-04T14:44:11.646Z,65.80
2019-04-04T14:46:40.523Z,70.72
2019-04-04T14:49:09.215Z,71.70
2019-04-04T14:51:37.975Z,69.17
2019-04-04T14:54:06.751Z,77.00
2019-04-04T14:56:35.476Z,79.03
2019-04-04T14:59:04.285Z,76.80
2019-04-04T15:01:35.076Z,90.70
2019-04-04T15:04:03.422Z,85.83
2019-04-04T15:06:32.422Z,85.30
2019-04-04T15:09:01.170Z,84.35
2019-04-04T15:11:29.812Z,83.90
2019-04-04T15:13:58.521Z,81.25
2019-04-04T15:16:27.484Z,82.30
2019-04-04T15:18:56.422Z,82.67
2019-04-04T15:21:25.097Z,77.27
2019-04-04T15:23:53.853Z,78.70
2019-04-04T15:26:22.788Z,81.80
2019-04-04T15:28:51.509Z,76.87
2019-04-04T15:31:20.265Z,76.42
2019-04-04T15:33:50.467Z,76.07
2019-04-04T15:36:19.419Z,77.80
2019-04-04T15:38:50.256Z,79.53
2019-04-04T15:41:19.095Z,76.72
2019-04-04T15:43:47.861Z,77.97
2019-04-04T15:46:16.787Z,80.80
2019-04-04T15:48:45.783Z,80.97
2019-04-04T15:51:14.482Z,84.58
2019-04-04T15:53:43.532Z,83.60
2019-04-04T15:56:13.309Z,86.80
2019-04-04T15:58:42.516Z,83.07
2019-04-04T16:01:11.259Z,82.10
2019-04-04T16:03:41.288Z,89.10
2019-04-04T16:06:10.042Z,90.35
2019-04-04T16:08:39.298Z,88.62
2019-04-04T16:11:08.007Z,78.57
2019-04-04T16:13:36.971Z,88.03
2019-04-04T16:16:05.835Z,87.50
2019-04-04T16:18:34.609Z,87.60
2019-04-04T16:21:03.576Z,97.20
2019-04-04T16:23:32.273Z,88.47
2019-04-04T16:26:00.994Z,90.15
2019-04-04T16:28:29.939Z,87.02
2019-04-04T16:30:58.901Z,86.72
2019-04-04T16:33:27.623Z,87.10
2019-04-04T16:35:56.312Z,94.25
2019-04-04T16:38:25.064Z,96.32
2019-04-04T16:40:53.772Z,94.32
2019-04-04T16:43:22.476Z,95.03
2019-04-04T16:45:51.453Z,93.90
2019-04-04T16:48:20.426Z,93.37
2019-04-04T16:50:49.623Z,93.95
2019-04-04T16:53:18.586Z,89.47
2019-04-04T16:55:47.298Z,89.30
2019-04-04T16:58:16.250Z,95.38
2019-04-04T17:00:44.953Z,98.67
2019-04-04T17:03:13.998Z,102.47
2019-04-04T17:05:42.696Z,102.30
2019-04-04T17:08:11.674Z,103.05
2019-04-04T17:10:40.377Z,107.05
2019-04-04T17:13:09.075Z,111.47
2019-04-04T17:15:37.864Z,111.17
2019-04-04T17:18:06.748Z,108.35
2019-04-04T17:20:35.669Z,107.10
2019-04-04T17:23:04.515Z,94.85
2019-04-04T17:25:33.496Z,104.10
2019-04-04T17:28:02.495Z,97.60
2019-04-04T17:30:31.498Z,99.00
2019-04-04T17:33:00.255Z,104.47
2019-04-04T17:35:29.371Z,106.80
2019-04-04T17:37:58.167Z,106.40
2019-04-04T17:40:27.111Z,103.22
2019-04-04T17:42:56.767Z,106.10
2019-04-04T17:45:25.542Z,99.28
2019-04-04T17:47:54.602Z,104.85
2019-04-04T17:50:26.355Z,103.22
2019-04-04T17:52:55.162Z,105.83
2019-04-04T17:55:24.196Z,120.45
2019-04-04T17:57:52.863Z,112.15
2019-04-04T18:00:23.238Z,126.02
2019-04-04T18:02:52.209Z,119.80
2019-04-04T18:05:21.222Z,114.37
2019-04-04T18:07:50.222Z,141.80
2019-04-04T18:10:19.623Z,113.12
2019-04-04T18:12:48.570Z,129.47
2019-04-04T18:15:17.922Z,129.70
2019-04-04T18:17:46.849Z,148.97
2019-04-04T18:20:16.058Z,189.10
2019-04-04T18:22:44.784Z,176.27
2019-04-04T18:25:13.746Z,139.77
2019-04-04T18:27:42.862Z,139.35
2019-04-04T18:30:12.285Z,129.50
2019-04-04T18:32:41.113Z,144.28
2019-04-04T18:35:10.590Z,139.52
2019-04-04T18:37:39.392Z,115.52
2019-04-04T18:40:15.146Z,128.12
2019-04-04T18:42:53.294Z,129.57
2019-04-04T18:45:15.323Z,184.03
2019-04-04T18:47:44.075Z,277.80
2019-04-04T18:50:15.270Z,114.25
2019-04-04T18:52:43.975Z,211.50
2019-04-04T18:55:19.609Z,197.05
2019-04-04T18:57:44.559Z,112.55
2019-04-04T19:00:14.119Z,180.85
2019-04-04T19:02:43.371Z,221.80
2019-04-04T19:05:12.799Z,113.05
2019-04-04T19:07:43.873Z,143.95
2019-04-04T19:10:14.655Z,105.43
2019-04-04T19:12:45.539Z,189.83
2019-04-04T19:15:15.966Z,114.72
2019-04-04T19:17:44.672Z,273.68
2019-04-04T19:20:13.649Z,222.45
2019-04-04T19:22:43.764Z,196.68
2019-04-04T19:25:13.833Z,155.57
2019-04-04T19:27:43.501Z,240.07
2019-04-04T19:30:13.024Z,121.82
2019-04-04T19:32:41.977Z,246.37
2019-04-04T19:35:10.918Z,139.18
2019-04-04T19:37:39.634Z,113.80
2019-04-04T19:40:08.980Z,99.52
2019-04-04T19:42:37.929Z,113.88
2019-04-04T19:45:07.275Z,217.65
2019-04-04T19:47:36.624Z,101.55
2019-04-04T19:50:06.451Z,97.75
2019-04-04T19:52:35.814Z,89.17
2019-04-04T19:55:05.045Z,96.67
2019-04-04T19:57:34.276Z,108.83
2019-04-04T20:00:03.011Z,142.07
2019-04-04T20:02:31.779Z,163.12
2019-04-04T20:05:00.426Z,143.28
2019-04-04T20:07:29.135Z,169.57
2019-04-04T20:09:58.169Z,191.60
2019-04-04T20:12:26.973Z,144.37
2019-04-04T20:14:56.036Z,221.43
2019-04-04T20:17:25.264Z,150.62
2019-04-04T20:19:54.063Z,105.52
2019-04-04T20:22:23.010Z,145.32
2019-04-04T20:24:51.680Z,153.57
2019-04-04T20:27:20.463Z,119.57
2019-04-04T20:29:49.148Z,187.20
2019-04-04T20:32:18.117Z,128.07
2019-04-04T20:34:47.038Z,166.00
2019-04-04T20:37:16.082Z,118.55
2019-04-04T20:39:45.027Z,141.62
2019-04-04T20:42:13.713Z,97.35
2019-04-04T20:44:42.413Z,162.75
2019-04-04T20:47:11.249Z,179.05
2019-04-04T20:49:40.189Z,190.70
2019-04-04T20:52:08.908Z,172.65
2019-04-04T20:54:37.586Z,106.95
2019-04-04T20:57:06.564Z,253.88
2019-04-04T20:59:35.344Z,164.80
2019-04-04T21:02:04.159Z,121.92
2019-04-04T21:04:33.124Z,159.97
2019-04-04T21:07:01.863Z,150.62
2019-04-04T21:09:30.564Z,191.45
2019-04-04T21:11:59.290Z,207.40
2019-04-04T21:14:28.324Z,345.10
2019-04-04T21:16:57.055Z,236.72
2019-04-04T21:19:25.809Z,273.32
2019-04-04T21:21:54.529Z,209.03
2019-04-04T21:24:23.453Z,185.55
2019-04-04T21:26:52.177Z,280.45
2019-04-04T21:29:21.142Z,282.30
2019-04-04T21:31:50.199Z,233.53
2019-04-04T21:34:19.125Z,341.82
2019-04-04T21:36:47.854Z,258.50
2019-04-04T21:39:17.356Z,324.88
2019-04-04T21:41:46.074Z,403.35
2019-04-04T21:44:14.789Z,447.90
2019-04-04T21:46:43.534Z,391.02
2019-04-04T21:49:12.235Z,310.50
2019-04-04T21:51:41.191Z,270.00
2019-04-04T21:54:09.941Z,304.57
2019-04-04T21:56:38.652Z,325.55
2019-04-04T21:59:07.456Z,367.62
2019-04-04T22:01:36.556Z,191.73
2019-04-04T22:04:05.436Z,313.90
2019-04-04T22:06:34.445Z,259.80
2019-04-04T22:09:04.987Z,291.93
2019-04-04T22:11:33.701Z,357.25
2019-04-04T22:14:02.415Z,252.78
2019-04-04T22:16:31.385Z,196.68
2019-04-04T22:19:00.090Z,184.67
2019-04-04T22:21:28.780Z,283.70
2019-04-04T22:23:57.509Z,331.75
2019-04-04T22:26:26.245Z,295.18
2019-04-04T22:28:55.345Z,257.25
2019-04-04T22:31:24.040Z,273.95
2019-04-04T22:33:53.007Z,267.13
2019-04-04T22:36:21.743Z,224.52
2019-04-04T22:38:50.479Z,251.62
2019-04-04T22:41:19.478Z,206.95
2019-04-04T22:43:48.294Z,238.60
2019-04-04T22:46:17.017Z,236.30
2019-04-04T22:48:45.724Z,221.43
2019-04-04T22:51:14.661Z,397.48
2019-04-04T22:53:43.890Z,481.43
2019-04-04T22:56:12.831Z,329.43
2019-04-04T22:58:41.783Z,316.63
2019-04-04T23:01:10.491Z,231.97
2019-04-04T23:03:39.431Z,254.57
2019-04-04T23:06:08.439Z,356.07
2019-04-04T23:08:37.383Z,381.32
2019-04-04T23:11:06.133Z,437.85
2019-04-04T23:13:35.089Z,217.60
2019-04-04T23:16:04.083Z,224.65
2019-04-04T23:18:32.781Z,139.28
2019-04-04T23:21:01.444Z,341.68
2019-04-04T23:23:30.161Z,374.25
2019-04-04T23:25:59.104Z,291.47
2019-04-04T23:28:27.809Z,405.93
2019-04-04T23:30:56.518Z,344.68
2019-04-04T23:33:25.475Z,254.13
2019-04-04T23:35:54.161Z,372.70
2019-04-04T23:38:22.864Z,321.07
2019-04-04T23:40:51.543Z,364.75
2019-04-04T23:43:20.315Z,351.70
2019-04-04T23:45:49.061Z,340.82
2019-04-04T23:48:17.995Z,223.35
2019-04-04T23:50:46.901Z,390.45
2019-04-04T23:53:15.863Z,334.85
2019-04-04T23:55:44.535Z,240.77
2019-04-04T23:58:16.214Z,499.38
